Decoded Metar for BIKF (KEFLAVIK in ICELAND) (IATA:KEF) | Meteo·Mobile Aviation Weather
aviador You're here:

BIKF Decoded Metar

KEFLAVIK in ICELAND
Report Time2018-11-19 05:30:00
UTC Time2018-11-19 05:41:24
Flight Rules ifr IFR
Wind130° at 25 kt
W.Decomp.*RWY 11: 20.2 kt HW 14.7 kt RCW
RWY 20: 14.7 kt HW 20.2 kt LCW
W.Rank130° ranks 4
Current wind is above 130° avg. (15.3)
Visibility3000 m
Phenomena:Rain
Clouds:Scattered 002 Hf
Broken 006 Hf
Overcast 009 Hf
Ceiling600 ft
Temp08°C (ISA -7)
Dew Point08°C (100% RH)
AAT-1.5°C
QNH1017 hPa
Density Alt-614 ft
Elevation177 ft
Report Wrong Elevation
Raw Report
BIKF 190530Z 13025KT 3000 RA SCT002 BKN006 OVC009 08/08 Q1017=

Extra information for BIKF:More info

Metar Taf Metar & Taf Last 4 Metars F.Rules Stats Wind Profile Meteogram Temp Stats Airport Information Weather charts Add Link Nearby VenuesMetar ALERT Operation Metar Decoded Social comments